Latest Weather Observations for Meekatharra

IDW60801

Issued at 11:34 am WST Wednesday 22 February 2017 (issued every 30 minutes, with the page automatically refreshed every 10 minutes)

About weather observations | Map of weather stations | Latest weather observations for WA | Other Formats
Station Details ID: 007045 Name: MEEKATHARRA AIRPORT Lat: -26.61 Lon: 118.54 Height: 517.0 m
Data from the previous 72 hours. | See also: Recent months at Meekatharra
Date/Time
WST
Temp
°C
App
Temp
°C
Dew
Point
°C
Rel
Hum
%
Delta-T
°C
Wind Press
QNH
hPa
Press
MSL
hPa
Rain since
9am
mm
Dir  Spd
km/h
Gust
km/h
Spd
kts
Gust
kts
22/11:30am 27.0 22.6 4.7 24 11.6 ESE 17 32 9 17 1018.5 1014.4 -
22/11:00am 26.4 22.0 4.8 25 11.2 SE 17 24 9 13 1018.7 1014.6 -
22/10:30am 25.3 20.7 5.5 28 10.4 SE 19 28 10 15 1018.9 1014.8 -
22/10:00am 25.0 20.2 5.7 29 10.1 ESE 20 32 11 17 1019.0 1014.9 0.0
22/09:49am 24.7 20.3 6.4 31 9.7 ESE 19 28 10 15 1019.1 1015.0 0.0
22/09:30am 23.7 - 6.0 32 9.3 - - - - - 1019.1 1015.0 -
22/09:00am 22.7 17.1 5.2 32 8.9 ESE 24 30 13 16 1019.0 1014.9 0.0
22/08:30am 22.3 17.1 5.7 34 8.6 ESE 22 30 12 16 1018.7 - 0.0
22/08:00am 20.9 15.4 6.1 38 7.6 SE 24 35 13 19 1018.5 - 0.0
22/07:30am 19.8 14.4 6.2 41 7.0 SE 24 33 13 18 1018.3 - 0.0
22/07:00am 18.9 13.5 6.4 44 6.4 SE 24 33 13 18 1017.9 - 0.0
22/06:30am 18.2 14.2 6.7 47 5.9 SSE 17 24 9 13 1017.6 - 0.0
22/06:00am 17.9 14.2 6.4 47 5.8 SSE 15 22 8 12 1017.3 1013.2 0.0
22/05:30am 18.4 13.8 6.6 46 6.0 SSE 20 28 11 15 1017.1 - 0.0
22/05:00am 18.7 14.1 6.5 45 6.2 SSE 20 28 11 15 1017.0 - 0.0
22/04:30am 19.1 14.8 6.9 45 6.3 SSE 19 28 10 15 1016.7 - 0.0
22/04:00am 19.4 15.2 7.5 46 6.2 SSE 19 26 10 14 1016.5 - 0.0
22/03:30am 19.9 15.2 7.6 45 6.5 SSE 22 30 12 16 1016.4 - 0.0
22/03:00am 20.4 16.1 7.7 44 6.7 SSE 20 28 11 15 1016.3 1012.1 0.0
22/02:30am 20.9 16.9 8.2 44 6.8 SSE 19 28 10 15 1016.1 - 0.0
22/02:00am 21.1 18.5 9.4 47 6.4 SSE 13 19 7 10 1015.9 - 0.0
22/01:30am 21.4 18.7 9.0 45 6.8 S 13 24 7 13 1016.1 - 0.0
22/01:00am 21.7 19.0 8.9 44 7.0 S 13 17 7 9 1016.1 - 0.0
22/12:30am 22.0 18.9 8.9 43 7.1 S 15 20 8 11 1016.1 - 0.0
22/12:00am 22.3 19.3 9.1 43 7.2 S 15 20 8 11 1016.3 1012.1 0.0
 
Date/Time
WST
Temp
°C
App
Temp
°C
Dew
Point
°C
Rel
Hum
%
Delta-T
°C
Wind Press
QNH
hPa
Press
MSL
hPa
Rain since
9am
mm
Dir  Spd
km/h
Gust
km/h
Spd
kts
Gust
kts
21/11:30pm 22.6 19.6 9.4 43 7.3 S 15 20 8 11 1016.3 - 0.0
21/11:00pm 23.0 19.6 9.0 41 7.7 S 17 26 9 14 1016.5 - 0.0
21/10:30pm 23.3 19.4 9.3 41 7.7 S 20 28 11 15 1016.6 - 0.0
21/10:00pm 23.8 19.1 9.4 40 8.0 S 24 33 13 18 1016.6 - 0.0
21/09:30pm 24.4 20.6 9.2 38 8.4 S 19 28 10 15 1016.3 - 0.0
21/09:00pm 24.9 20.8 8.0 34 9.2 SSW 19 26 10 14 1016.1 1011.9 0.0
21/08:30pm 25.5 20.9 8.1 33 9.5 SSW 22 30 12 16 1015.7 - 0.0
21/08:00pm 26.2 21.8 7.3 30 10.3 SSW 20 30 11 16 1015.3 - 0.0
21/07:30pm 26.7 21.9 5.6 26 11.1 SSW 20 30 11 16 1014.8 - 0.0
21/07:00pm 27.2 22.2 6.6 27 11.1 S 22 30 12 16 1014.2 - 0.0
21/06:30pm 28.3 22.2 6.4 25 11.8 S 28 35 15 19 1013.6 - 0.0
21/06:00pm 29.4 23.9 6.1 23 12.6 SSW 24 35 13 19 1013.2 1009.1 0.0
21/05:30pm 30.1 24.3 6.1 22 13.0 SSW 26 37 14 20 1013.0 - 0.0
21/05:00pm 30.3 25.0 6.9 23 12.9 SW 24 39 13 21 1012.9 - 0.0
21/04:30pm 30.7 24.7 7.2 23 13.0 SW 28 43 15 23 1012.7 - 0.0
21/04:00pm 30.6 25.3 10.0 28 11.9 SW 28 39 15 21 1012.7 - 0.0
21/03:30pm 30.6 26.8 12.5 33 10.9 SW 24 37 13 20 1012.6 - 0.0
21/03:00pm 30.6 26.7 13.4 35 10.5 SW 26 39 14 21 1012.5 1008.3 0.0
21/02:30pm 30.6 27.6 13.8 35 10.3 WSW 22 35 12 19 1012.8 - 0.0
21/02:00pm 30.6 27.6 14.7 38 9.9 SW 24 39 13 21 1013.0 - 0.0
21/01:30pm 30.1 27.0 16.5 44 8.7 SW 28 43 15 23 1013.3 - 0.0
21/01:00pm 29.0 26.8 16.9 48 7.7 WSW 24 33 13 18 1013.5 - 0.0
21/12:30pm 29.7 27.9 17.8 48 7.7 SW 24 41 13 22 1013.8 - 0.0
21/12:00pm 28.4 27.9 17.9 53 6.8 SW 17 26 9 14 1013.8 1009.7 0.0
21/11:30am 27.2 25.4 17.9 56 6.0 SSW 24 33 13 18 1014.2 - 0.0
21/11:26am 27.8 26.3 18.5 57 6.1 SSW 24 35 13 19 1014.2 - 0.0
21/11:00am 28.9 27.4 19.5 57 6.2 SW 26 35 14 19 1014.3 - 0.0
21/10:30am 28.0 27.3 18.7 57 6.1 WSW 20 32 11 17 1014.2 - 0.0
21/10:00am 27.6 27.0 18.9 59 5.7 SW 20 30 11 16 1014.3 - 0.0
21/09:30am 27.5 27.8 18.8 59 5.7 WSW 15 24 8 13 1014.3 - 0.0
21/09:28am 27.9 28.3 19.1 58 5.8 WSW 15 20 8 11 1014.2 - 0.0
21/09:22am 27.1 27.5 18.9 61 5.4 SW 15 22 8 12 1014.1 - 0.0
21/09:00am 27.2 28.1 19.3 62 5.2 SW 13 20 7 11 1014.3 1010.1 0.0
21/08:30am 26.2 26.6 19.1 65 4.7 SW 15 20 8 11 1014.2 - 0.0
21/08:23am 25.8 26.6 19.0 66 4.4 WSW 13 20 7 11 1014.1 - 0.0
21/08:00am 25.9 25.5 18.8 65 4.6 WSW 19 24 10 13 1014.2 - 0.0
21/07:30am 26.1 27.0 19.2 65 4.5 WSW 13 17 7 9 1013.8 - 0.0
21/07:00am 25.2 26.1 18.4 66 4.4 W 11 13 6 7 1013.3 - 0.0
21/06:30am 25.0 25.8 18.2 66 4.4 WSW 11 15 6 8 1013.3 - 0.0
21/06:00am 25.0 26.1 18.0 65 4.5 W 9 13 5 7 1013.0 1008.9 0.0
21/05:30am 25.2 26.6 17.7 63 4.8 SW 7 11 4 6 1012.7 - 0.0
21/05:00am 25.5 26.3 17.4 61 5.2 SW 9 11 5 6 1012.5 - 0.0
21/04:30am 25.5 26.6 17.2 60 5.3 S 7 9 4 5 1012.0 - 0.0
21/04:00am 25.6 28.0 17.0 59 5.5 CALM 0 9 0 5 1012.0 - 0.0
21/03:30am 25.5 27.9 16.9 59 5.4 CALM 0 0 0 0 1011.8 - 0.0
21/03:00am 25.7 27.9 16.5 56 5.8 CALM 0 0 0 0 1012.0 1007.8 0.0
21/02:30am 25.7 26.6 16.5 56 5.8 S 7 9 4 5 1012.0 - 0.0
21/02:00am 25.7 26.6 16.5 56 5.8 S 7 9 4 5 1012.3 - 0.0
21/01:30am 25.7 25.7 16.3 56 5.9 S 11 13 6 7 1012.5 - 0.0
21/01:00am 25.9 25.9 16.2 55 6.1 S 11 13 6 7 1013.0 - 0.0
21/12:30am 25.7 26.0 17.1 59 5.5 SSE 11 17 6 9 1012.9 - 0.0
21/12:00am 25.3 25.4 17.5 62 5.0 SSE 13 19 7 10 1012.9 1008.7 0.0
 
Date/Time
WST
Temp
°C
App
Temp
°C
Dew
Point
°C
Rel
Hum
%
Delta-T
°C
Wind Press
QNH
hPa
Press
MSL
hPa
Rain since
9am
mm
Dir  Spd
km/h
Gust
km/h
Spd
kts
Gust
kts
20/11:30pm 25.3 24.0 17.2 61 5.1 S 20 26 11 14 1013.4 - 0.0
20/11:00pm 25.8 24.7 17.2 59 5.5 S 19 24 10 13 1013.8 - 0.0
20/10:30pm 25.7 25.0 17.4 60 5.3 S 17 24 9 13 1013.7 - 0.0
20/10:00pm 25.9 24.3 17.5 59 5.4 SSW 22 30 12 16 1013.8 - 0.0
20/09:30pm 26.0 24.6 17.9 61 5.2 SSW 22 32 12 17 1013.6 - 0.0
20/09:00pm 26.1 23.8 18.5 63 4.9 SSW 28 41 15 22 1013.6 1009.5 0.0
20/08:30pm 26.6 24.4 18.7 62 5.2 SSW 28 41 15 22 1013.5 - 0.0
20/08:00pm 27.5 24.0 17.9 55 6.2 SSW 33 46 18 25 1013.1 - 0.0
20/07:30pm 28.3 24.3 17.5 52 7.0 SW 35 50 19 27 1012.9 - 0.0
20/07:27pm 28.5 25.0 17.4 51 7.1 SW 32 50 17 27 1012.8 - 0.0
20/07:00pm 29.7 26.5 17.2 47 8.1 SW 30 44 16 24 1012.2 - 0.0
20/06:30pm 30.3 25.8 17.4 46 8.3 SW 37 52 20 28 1011.2 - 0.0
20/06:14pm 31.9 26.1 15.0 36 10.6 SW 39 50 21 27 1010.8 - 0.0
20/06:00pm 35.2 32.1 8.9 20 15.3 W 15 20 8 11 1010.2 1006.0 0.0
20/05:30pm 35.7 32.9 8.5 19 15.8 WSW 13 22 7 12 1010.0 - 0.0
20/05:00pm 37.0 33.9 8.8 18 16.5 WNW 15 22 8 12 1010.2 - 0.0
20/04:30pm 37.2 34.7 8.1 17 16.9 W 11 20 6 11 1010.2 - 0.0
20/04:00pm 36.3 33.4 8.2 18 16.2 NNW 13 20 7 11 1010.1 - 0.0
20/03:30pm 36.1 33.6 8.0 18 16.2 NNW 11 20 6 11 1009.8 - 0.0
20/03:00pm 36.1 33.9 8.0 18 16.2 NNE 9 15 5 8 1010.1 1005.9 0.0
20/02:30pm 36.2 34.4 8.1 18 16.2 N 7 13 4 7 1010.6 - 0.0
20/02:00pm 36.5 33.7 8.4 18 16.3 NE 13 20 7 11 1011.3 - 0.0
20/01:30pm 35.6 33.0 7.6 18 16.0 WNW 11 19 6 10 1012.0 - 0.0
20/01:00pm 35.2 33.1 8.1 19 15.6 WSW 9 15 5 8 1012.4 - 0.0
20/12:30pm 35.6 33.2 6.8 17 16.2 W 9 15 5 8 1012.9 - 0.0
20/12:00pm 34.1 30.8 6.4 18 15.4 W 13 19 7 10 1013.4 1009.3 0.0
20/11:30am 34.3 30.9 5.8 17 15.7 NW 13 20 7 11 1013.8 - 0.0
20/11:00am 33.3 28.9 5.0 17 15.3 NNW 17 35 9 19 1014.4 - 0.0
20/10:30am 32.4 28.0 6.6 20 14.3 N 19 24 10 13 1014.8 - 0.0
20/10:00am 32.0 27.7 7.0 21 13.9 N 19 28 10 15 1015.0 - 0.0
20/09:30am 30.9 26.5 6.7 22 13.3 NNE 19 30 10 16 1015.1 - 0.0
20/09:00am 30.3 26.1 7.5 24 12.7 NNE 19 26 10 14 1015.3 1011.2 0.0
20/08:30am 29.2 25.3 7.2 25 12.1 NNE 17 26 9 14 1015.4 - 0.0
20/08:00am 27.9 24.0 7.2 27 11.3 NNE 17 26 9 14 1015.6 - 0.0
20/07:30am 26.6 22.8 7.6 30 10.4 NNE 17 22 9 12 1015.6 - 0.0
20/07:00am 25.4 23.4 8.8 35 9.2 NE 9 15 5 8 1015.4 - 0.0
20/06:30am 24.1 22.4 9.7 40 8.1 ENE 9 13 5 7 1015.2 - 0.0
20/06:00am 22.2 21.1 10.7 48 6.5 NE 7 9 4 5 1015.0 1010.9 0.0
20/05:30am 22.1 22.3 10.6 48 6.5 CALM 0 0 0 0 1014.9 - 0.0
20/05:00am 23.2 23.0 9.2 41 7.7 CALM 0 0 0 0 1014.7 - 0.0
20/04:30am 23.7 22.5 8.2 37 8.4 E 4 7 2 4 1014.6 - 0.0
20/04:00am 24.4 22.5 7.5 34 9.1 E 7 9 4 5 1014.4 - 0.0
20/03:30am 25.1 22.9 7.7 33 9.4 ENE 9 11 5 6 1014.3 - 0.0
20/03:00am 25.5 22.9 7.6 32 9.7 E 11 19 6 10 1014.3 1010.1 0.0
20/02:30am 25.8 23.1 7.4 31 10.0 E 11 13 6 7 1014.3 - 0.0
20/02:00am 26.4 23.7 7.4 30 10.3 ENE 11 15 6 8 1014.4 - 0.0
20/01:30am 27.0 23.1 6.9 28 10.9 E 17 20 9 11 1014.5 - 0.0
20/01:00am 27.0 23.8 6.9 28 10.9 ENE 13 15 7 8 1014.6 - 0.0
20/12:30am 27.8 23.4 6.6 26 11.5 E 19 26 10 14 1014.6 - 0.0
20/12:00am 28.5 24.9 6.6 25 11.9 E 15 20 8 11 1014.8 1010.7 0.0
 
Date/Time
WST
Temp
°C
App
Temp
°C
Dew
Point
°C
Rel
Hum
%
Delta-T
°C
Wind Press
QNH
hPa
Press
MSL
hPa
Rain since
9am
mm
Dir  Spd
km/h
Gust
km/h
Spd
kts
Gust
kts
19/11:30pm 28.6 25.7 8.3 28 11.3 E 13 15 7 8 1015.0 - 0.0
19/11:00pm 28.8 26.6 9.5 30 11.0 E 11 13 6 7 1015.0 - 0.0
19/10:30pm 29.3 27.5 9.4 29 11.4 E 9 13 5 7 1015.1 - 0.0
19/10:00pm 29.8 28.7 11.8 33 10.7 E 9 11 5 6 1015.2 - 0.0
19/09:30pm 29.5 29.0 12.0 34 10.4 SE 6 9 3 5 1015.2 - 0.0
19/09:00pm 30.4 29.2 10.4 29 11.7 SSE 7 9 4 5 1015.2 1011.1 0.0
19/08:30pm 31.3 29.7 10.1 27 12.3 SSE 9 13 5 7 1015.0 - 0.0
19/08:00pm 31.9 30.2 10.0 26 12.8 SE 9 11 5 6 1014.8 - 0.0
19/07:30pm 32.6 30.2 10.0 25 13.2 SSE 13 19 7 10 1014.6 - 0.0
19/07:00pm 33.2 30.2 9.3 23 13.9 SE 15 20 8 11 1014.4 - 0.0
19/06:30pm 33.7 30.1 9.7 23 14.0 SSE 19 24 10 13 1013.8 - 0.0
19/06:00pm 34.3 30.6 9.5 22 14.5 SSE 19 26 10 14 1013.6 1009.5 0.0
19/05:30pm 35.0 32.4 9.4 21 15.0 S 13 20 7 11 1013.6 - 0.0
19/05:00pm 35.4 32.3 9.0 20 15.4 SE 15 28 8 15 1013.8 - 0.0
19/04:30pm 35.9 32.4 8.7 19 15.8 SE 17 24 9 13 1013.8 - 0.0
19/04:00pm 36.0 33.5 8.0 18 16.1 SSE 11 24 6 13 1014.1 - 0.0
19/03:30pm 35.5 32.8 7.5 18 16.0 ESE 11 26 6 14 1014.2 - 0.0
19/03:00pm 35.2 31.2 8.1 19 15.6 ESE 19 26 10 14 1014.5 1010.3 0.0
19/02:30pm 36.2 31.8 6.4 16 16.8 ESE 19 30 10 16 1014.8 - 0.0
19/02:00pm 35.4 30.8 6.6 17 16.2 E 20 28 11 15 1015.1 - 0.0
19/01:30pm 34.8 31.6 7.0 18 15.7 ENE 13 20 7 11 1015.5 - 0.0
19/01:00pm 33.6 30.4 6.8 19 15.0 SSE 13 26 7 14 1015.9 - 0.0
19/12:30pm 34.1 29.7 6.4 18 15.4 ESE 19 28 10 15 1016.3 - 0.0
19/12:00pm 32.4 29.9 8.0 22 13.8 ENE 11 20 6 11 1016.6 1012.5 0.0

Other Formats:

Comma delimited format used in spreadsheet applications
http://www.bom.gov.au/fwo/IDW60801/IDW60801.94430.axf

JavaScript Object Notation format (JSON) in row-major order
http://www.bom.gov.au/fwo/IDW60801/IDW60801.94430.json